sensor_id;sensor_type;location;lat;lon;timestamp;P1;durP1;ratioP1;P2;durP2;ratioP2
19971;SDS011;10147;16.402;102.848;2023-04-24T00:01:49;21.45;;;17.08;;
19971;SDS011;10147;16.402;102.848;2023-04-24T00:04:19;22.15;;;18.40;;
19971;SDS011;10147;16.402;102.848;2023-04-24T00:06:51;27.45;;;22.88;;
19971;SDS011;10147;16.402;102.848;2023-04-24T00:09:26;22.92;;;19.77;;
19971;SDS011;10147;16.402;102.848;2023-04-24T00:11:56;20.02;;;16.98;;
19971;SDS011;10147;16.402;102.848;2023-04-24T00:14:26;19.65;;;17.55;;
19971;SDS011;10147;16.402;102.848;2023-04-24T00:16:58;21.52;;;17.42;;
19971;SDS011;10147;16.402;102.848;2023-04-24T00:19:28;22.58;;;17.65;;
19971;SDS011;10147;16.402;102.848;2023-04-24T00:21:59;22.20;;;17.08;;
19971;SDS011;10147;16.402;102.848;2023-04-24T00:24:29;23.30;;;17.30;;
19971;SDS011;10147;16.402;102.848;2023-04-24T00:27:00;23.02;;;17.52;;
19971;SDS011;10147;16.402;102.848;2023-04-24T00:29:31;23.73;;;19.45;;
19971;SDS011;10147;16.402;102.848;2023-04-24T00:32:01;24.38;;;19.02;;
19971;SDS011;10147;16.402;102.848;2023-04-24T00:34:32;24.73;;;17.35;;
19971;SDS011;10147;16.402;102.848;2023-04-24T00:37:02;22.95;;;17.20;;
19971;SDS011;10147;16.402;102.848;2023-04-24T00:39:35;24.27;;;17.60;;
19971;SDS011;10147;16.402;102.848;2023-04-24T00:42:07;22.83;;;16.05;;
19971;SDS011;10147;16.402;102.848;2023-04-24T00:44:37;22.90;;;17.02;;
19971;SDS011;10147;16.402;102.848;2023-04-24T00:47:08;22.15;;;17.50;;
19971;SDS011;10147;16.402;102.848;2023-04-24T00:49:40;22.90;;;18.40;;
19971;SDS011;10147;16.402;102.848;2023-04-24T00:52:11;24.73;;;17.10;;
19971;SDS011;10147;16.402;102.848;2023-04-24T00:54:41;22.50;;;16.80;;
19971;SDS011;10147;16.402;102.848;2023-04-24T00:57:12;23.63;;;17.60;;
19971;SDS011;10147;16.402;102.848;2023-04-24T00:59:44;23.13;;;16.88;;
19971;SDS011;10147;16.402;102.848;2023-04-24T01:02:14;23.83;;;15.90;;
19971;SDS011;10147;16.402;102.848;2023-04-24T01:04:45;21.48;;;16.35;;
19971;SDS011;10147;16.402;102.848;2023-04-24T01:07:17;23.80;;;17.02;;
19971;SDS011;10147;16.402;102.848;2023-04-24T01:09:50;21.65;;;17.13;;
19971;SDS011;10147;16.402;102.848;2023-04-24T01:12:21;23.00;;;17.52;;
19971;SDS011;10147;16.402;102.848;2023-04-24T01:14:51;24.45;;;17.35;;
19971;SDS011;10147;16.402;102.848;2023-04-24T01:17:21;23.15;;;17.38;;
19971;SDS011;10147;16.402;102.848;2023-04-24T01:19:53;22.52;;;17.77;;
19971;SDS011;10147;16.402;102.848;2023-04-24T01:22:26;26.38;;;17.27;;
19971;SDS011;10147;16.402;102.848;2023-04-24T01:24:56;21.13;;;17.05;;
19971;SDS011;10147;16.402;102.848;2023-04-24T01:27:29;22.25;;;16.23;;
19971;SDS011;10147;16.402;102.848;2023-04-24T01:29:59;23.88;;;18.67;;
19971;SDS011;10147;16.402;102.848;2023-04-24T01:32:30;25.10;;;16.83;;
19971;SDS011;10147;16.402;102.848;2023-04-24T01:35:01;22.40;;;16.73;;
19971;SDS011;10147;16.402;102.848;2023-04-24T01:37:34;30.98;;;22.70;;
19971;SDS011;10147;16.402;102.848;2023-04-24T01:40:06;32.97;;;23.55;;
19971;SDS011;10147;16.402;102.848;2023-04-24T01:42:37;27.20;;;18.23;;
19971;SDS011;10147;16.402;102.848;2023-04-24T01:45:08;20.95;;;16.35;;
19971;SDS011;10147;16.402;102.848;2023-04-24T01:47:42;22.80;;;16.83;;
19971;SDS011;10147;16.402;102.848;2023-04-24T01:50:16;20.58;;;16.05;;
19971;SDS011;10147;16.402;102.848;2023-04-24T01:52:47;23.02;;;16.48;;
19971;SDS011;10147;16.402;102.848;2023-04-24T01:55:17;21.05;;;16.75;;
19971;SDS011;10147;16.402;102.848;2023-04-24T01:57:48;19.45;;;16.63;;
19971;SDS011;10147;16.402;102.848;2023-04-24T02:00:21;29.23;;;24.13;;
19971;SDS011;10147;16.402;102.848;2023-04-24T02:02:52;21.88;;;17.42;;
19971;SDS011;10147;16.402;102.848;2023-04-24T02:05:26;20.35;;;16.27;;
19971;SDS011;10147;16.402;102.848;2023-04-24T02:07:56;19.30;;;17.25;;
19971;SDS011;10147;16.402;102.848;2023-04-24T02:10:28;20.90;;;15.77;;
19971;SDS011;10147;16.402;102.848;2023-04-24T02:13:00;19.23;;;15.55;;
19971;SDS011;10147;16.402;102.848;2023-04-24T02:15:33;18.73;;;15.00;;
19971;SDS011;10147;16.402;102.848;2023-04-24T02:18:05;19.52;;;15.13;;
19971;SDS011;10147;16.402;102.848;2023-04-24T02:20:36;18.70;;;14.30;;
19971;SDS011;10147;16.402;102.848;2023-04-24T02:23:06;18.60;;;13.85;;
19971;SDS011;10147;16.402;102.848;2023-04-24T02:25:38;20.92;;;14.13;;
19971;SDS011;10147;16.402;102.848;2023-04-24T02:28:08;16.45;;;13.73;;
19971;SDS011;10147;16.402;102.848;2023-04-24T02:30:38;17.80;;;13.40;;
19971;SDS011;10147;16.402;102.848;2023-04-24T02:33:08;16.20;;;13.82;;
19971;SDS011;10147;16.402;102.848;2023-04-24T02:35:40;15.20;;;13.52;;
19971;SDS011;10147;16.402;102.848;2023-04-24T02:38:11;15.65;;;13.30;;
19971;SDS011;10147;16.402;102.848;2023-04-24T02:40:43;19.20;;;14.65;;
19971;SDS011;10147;16.402;102.848;2023-04-24T02:43:13;19.13;;;15.07;;
19971;SDS011;10147;16.402;102.848;2023-04-24T02:45:43;18.40;;;14.65;;
19971;SDS011;10147;16.402;102.848;2023-04-24T02:48:15;17.98;;;14.15;;
19971;SDS011;10147;16.402;102.848;2023-04-24T02:50:46;16.15;;;14.45;;
19971;SDS011;10147;16.402;102.848;2023-04-24T02:53:18;17.30;;;14.10;;
19971;SDS011;10147;16.402;102.848;2023-04-24T02:55:48;16.77;;;14.02;;
19971;SDS011;10147;16.402;102.848;2023-04-24T02:58:19;16.17;;;14.30;;
19971;SDS011;10147;16.402;102.848;2023-04-24T03:00:52;16.20;;;14.50;;
19971;SDS011;10147;16.402;102.848;2023-04-24T03:03:24;14.95;;;13.43;;
19971;SDS011;10147;16.402;102.848;2023-04-24T03:05:55;21.05;;;19.23;;
19971;SDS011;10147;16.402;102.848;2023-04-24T03:08:26;15.98;;;14.10;;
19971;SDS011;10147;16.402;102.848;2023-04-24T03:10:57;16.38;;;14.52;;
19971;SDS011;10147;16.402;102.848;2023-04-24T03:13:31;15.45;;;13.85;;
19971;SDS011;10147;16.402;102.848;2023-04-24T03:16:04;14.60;;;13.18;;
19971;SDS011;10147;16.402;102.848;2023-04-24T03:18:35;15.18;;;13.63;;
19971;SDS011;10147;16.402;102.848;2023-04-24T03:21:08;15.88;;;14.38;;
19971;SDS011;10147;16.402;102.848;2023-04-24T03:23:43;15.57;;;13.82;;
19971;SDS011;10147;16.402;102.848;2023-04-24T03:26:14;15.75;;;14.15;;
19971;SDS011;10147;16.402;102.848;2023-04-24T03:29:00;16.05;;;14.45;;
19971;SDS011;10147;16.402;102.848;2023-04-24T03:31:33;17.27;;;15.48;;
19971;SDS011;10147;16.402;102.848;2023-04-24T03:34:03;18.17;;;16.25;;
19971;SDS011;10147;16.402;102.848;2023-04-24T03:36:35;17.65;;;15.85;;
19971;SDS011;10147;16.402;102.848;2023-04-24T03:39:07;18.35;;;16.45;;
19971;SDS011;10147;16.402;102.848;2023-04-24T03:41:44;19.33;;;16.15;;
19971;SDS011;10147;16.402;102.848;2023-04-24T03:44:24;17.77;;;15.93;;
19971;SDS011;10147;16.402;102.848;2023-04-24T03:46:57;17.88;;;15.48;;
19971;SDS011;10147;16.402;102.848;2023-04-24T03:49:28;17.48;;;15.77;;
19971;SDS011;10147;16.402;102.848;2023-04-24T03:52:01;18.42;;;16.63;;
19971;SDS011;10147;16.402;102.848;2023-04-24T03:54:32;21.02;;;16.35;;
19971;SDS011;10147;16.402;102.848;2023-04-24T03:57:04;19.23;;;16.17;;
19971;SDS011;10147;16.402;102.848;2023-04-24T03:59:42;18.15;;;16.33;;
19971;SDS011;10147;16.402;102.848;2023-04-24T04:02:17;18.48;;;16.52;;
19971;SDS011;10147;16.402;102.848;2023-04-24T04:04:49;19.98;;;17.38;;
19971;SDS011;10147;16.402;102.848;2023-04-24T04:07:20;17.73;;;16.00;;
19971;SDS011;10147;16.402;102.848;2023-04-24T04:09:50;19.65;;;16.58;;
19971;SDS011;10147;16.402;102.848;2023-04-24T04:12:23;19.35;;;16.83;;
19971;SDS011;10147;16.402;102.848;2023-04-24T04:14:54;18.55;;;16.65;;
19971;SDS011;10147;16.402;102.848;2023-04-24T04:17:24;18.20;;;16.48;;
19971;SDS011;10147;16.402;102.848;2023-04-24T04:19:54;18.85;;;16.85;;
19971;SDS011;10147;16.402;102.848;2023-04-24T04:22:25;19.02;;;17.10;;
19971;SDS011;10147;16.402;102.848;2023-04-24T04:25:06;19.52;;;17.60;;
19971;SDS011;10147;16.402;102.848;2023-04-24T04:27:37;18.88;;;16.15;;
19971;SDS011;10147;16.402;102.848;2023-04-24T04:30:10;20.48;;;17.25;;
19971;SDS011;10147;16.402;102.848;2023-04-24T04:32:52;22.33;;;16.77;;
19971;SDS011;10147;16.402;102.848;2023-04-24T04:35:24;20.02;;;17.52;;
19971;SDS011;10147;16.402;102.848;2023-04-24T04:37:57;18.70;;;16.65;;
19971;SDS011;10147;16.402;102.848;2023-04-24T04:40:43;23.90;;;21.67;;
19971;SDS011;10147;16.402;102.848;2023-04-24T04:43:18;29.55;;;26.95;;
19971;SDS011;10147;16.402;102.848;2023-04-24T04:45:51;33.83;;;30.90;;
19971;SDS011;10147;16.402;102.848;2023-04-24T04:48:43;18.52;;;16.10;;
19971;SDS011;10147;16.402;102.848;2023-04-24T04:51:14;17.58;;;15.48;;
19971;SDS011;10147;16.402;102.848;2023-04-24T04:53:45;19.42;;;17.55;;
19971;SDS011;10147;16.402;102.848;2023-04-24T04:56:15;19.80;;;17.30;;
19971;SDS011;10147;16.402;102.848;2023-04-24T04:58:45;17.70;;;15.93;;
19971;SDS011;10147;16.402;102.848;2023-04-24T05:01:18;18.73;;;16.88;;
19971;SDS011;10147;16.402;102.848;2023-04-24T05:03:49;19.05;;;17.05;;
19971;SDS011;10147;16.402;102.848;2023-04-24T05:06:20;19.52;;;17.20;;
19971;SDS011;10147;16.402;102.848;2023-04-24T05:08:51;19.67;;;17.73;;
19971;SDS011;10147;16.402;102.848;2023-04-24T05:11:39;20.17;;;17.63;;
19971;SDS011;10147;16.402;102.848;2023-04-24T05:14:10;26.10;;;23.88;;
19971;SDS011;10147;16.402;102.848;2023-04-24T05:16:43;18.98;;;17.10;;
19971;SDS011;10147;16.402;102.848;2023-04-24T05:19:17;19.30;;;17.33;;
19971;SDS011;10147;16.402;102.848;2023-04-24T05:21:49;19.55;;;17.45;;
19971;SDS011;10147;16.402;102.848;2023-04-24T05:24:21;19.23;;;17.13;;
19971;SDS011;10147;16.402;102.848;2023-04-24T05:27:07;22.30;;;20.20;;
19971;SDS011;10147;16.402;102.848;2023-04-24T05:29:40;22.48;;;17.90;;
19971;SDS011;10147;16.402;102.848;2023-04-24T05:32:12;29.38;;;26.30;;
19971;SDS011;10147;16.402;102.848;2023-04-24T05:34:43;21.52;;;19.40;;
19971;SDS011;10147;16.402;102.848;2023-04-24T05:37:14;21.67;;;19.23;;
19971;SDS011;10147;16.402;102.848;2023-04-24T05:39:43;20.67;;;18.60;;
19971;SDS011;10147;16.402;102.848;2023-04-24T05:42:14;22.00;;;19.75;;
19971;SDS011;10147;16.402;102.848;2023-04-24T05:44:48;20.10;;;18.20;;
19971;SDS011;10147;16.402;102.848;2023-04-24T05:47:20;21.70;;;19.42;;
19971;SDS011;10147;16.402;102.848;2023-04-24T05:49:52;20.25;;;18.05;;
19971;SDS011;10147;16.402;102.848;2023-04-24T05:52:22;19.95;;;17.90;;
19971;SDS011;10147;16.402;102.848;2023-04-24T05:54:52;22.38;;;19.98;;
19971;SDS011;10147;16.402;102.848;2023-04-24T05:57:25;20.52;;;18.38;;
19971;SDS011;10147;16.402;102.848;2023-04-24T06:00:02;19.98;;;18.00;;
19971;SDS011;10147;16.402;102.848;2023-04-24T06:02:44;23.02;;;20.55;;
19971;SDS011;10147;16.402;102.848;2023-04-24T06:05:15;21.20;;;19.05;;
19971;SDS011;10147;16.402;102.848;2023-04-24T06:07:45;21.20;;;19.17;;
19971;SDS011;10147;16.402;102.848;2023-04-24T06:10:16;19.38;;;17.48;;
19971;SDS011;10147;16.402;102.848;2023-04-24T06:12:46;19.75;;;17.98;;
19971;SDS011;10147;16.402;102.848;2023-04-24T06:15:17;20.48;;;18.45;;
19971;SDS011;10147;16.402;102.848;2023-04-24T06:17:52;20.35;;;18.40;;
19971;SDS011;10147;16.402;102.848;2023-04-24T06:20:23;20.63;;;18.52;;
19971;SDS011;10147;16.402;102.848;2023-04-24T06:22:53;21.27;;;19.15;;
19971;SDS011;10147;16.402;102.848;2023-04-24T06:25:24;20.73;;;18.83;;
19971;SDS011;10147;16.402;102.848;2023-04-24T06:27:56;20.27;;;18.23;;
19971;SDS011;10147;16.402;102.848;2023-04-24T06:30:29;19.88;;;17.98;;
19971;SDS011;10147;16.402;102.848;2023-04-24T06:33:00;19.52;;;17.75;;
19971;SDS011;10147;16.402;102.848;2023-04-24T06:35:46;18.98;;;17.17;;
19971;SDS011;10147;16.402;102.848;2023-04-24T06:38:16;23.83;;;21.83;;
19971;SDS011;10147;16.402;102.848;2023-04-24T06:40:46;18.80;;;17.00;;
19971;SDS011;10147;16.402;102.848;2023-04-24T06:43:16;20.02;;;18.17;;
19971;SDS011;10147;16.402;102.848;2023-04-24T06:45:46;20.73;;;18.55;;
19971;SDS011;10147;16.402;102.848;2023-04-24T06:48:17;20.25;;;18.23;;
19971;SDS011;10147;16.402;102.848;2023-04-24T06:50:47;18.75;;;16.80;;
19971;SDS011;10147;16.402;102.848;2023-04-24T06:53:16;17.25;;;15.32;;
19971;SDS011;10147;16.402;102.848;2023-04-24T06:55:47;17.33;;;15.65;;
19971;SDS011;10147;16.402;102.848;2023-04-24T06:58:17;16.60;;;14.93;;
19971;SDS011;10147;16.402;102.848;2023-04-24T07:00:48;17.45;;;15.85;;
19971;SDS011;10147;16.402;102.848;2023-04-24T07:03:18;16.95;;;15.30;;
19971;SDS011;10147;16.402;102.848;2023-04-24T07:05:49;17.02;;;15.23;;
19971;SDS011;10147;16.402;102.848;2023-04-24T07:08:20;16.83;;;15.23;;
19971;SDS011;10147;16.402;102.848;2023-04-24T07:10:50;18.27;;;16.02;;
19971;SDS011;10147;16.402;102.848;2023-04-24T07:13:20;16.70;;;15.13;;
19971;SDS011;10147;16.402;102.848;2023-04-24T07:15:51;17.90;;;16.05;;
19971;SDS011;10147;16.402;102.848;2023-04-24T07:18:23;17.77;;;16.02;;
19971;SDS011;10147;16.402;102.848;2023-04-24T07:20:53;17.80;;;15.85;;
19971;SDS011;10147;16.402;102.848;2023-04-24T07:23:23;18.25;;;16.33;;
19971;SDS011;10147;16.402;102.848;2023-04-24T07:25:53;18.73;;;16.17;;
19971;SDS011;10147;16.402;102.848;2023-04-24T07:28:23;18.95;;;17.25;;
19971;SDS011;10147;16.402;102.848;2023-04-24T07:30:53;18.55;;;16.80;;
19971;SDS011;10147;16.402;102.848;2023-04-24T07:33:23;19.60;;;17.77;;
19971;SDS011;10147;16.402;102.848;2023-04-24T07:35:53;18.58;;;16.77;;
19971;SDS011;10147;16.402;102.848;2023-04-24T07:38:23;19.48;;;17.67;;
19971;SDS011;10147;16.402;102.848;2023-04-24T07:40:54;19.90;;;17.10;;
19971;SDS011;10147;16.402;102.848;2023-04-24T07:43:24;18.85;;;17.05;;
19971;SDS011;10147;16.402;102.848;2023-04-24T07:45:54;18.98;;;17.27;;
19971;SDS011;10147;16.402;102.848;2023-04-24T07:48:24;19.63;;;17.75;;
19971;SDS011;10147;16.402;102.848;2023-04-24T07:50:55;20.75;;;18.67;;
19971;SDS011;10147;16.402;102.848;2023-04-24T07:53:24;19.98;;;17.98;;
19971;SDS011;10147;16.402;102.848;2023-04-24T07:55:55;19.40;;;17.65;;
19971;SDS011;10147;16.402;102.848;2023-04-24T07:58:26;20.00;;;18.20;;
19971;SDS011;10147;16.402;102.848;2023-04-24T08:00:58;21.40;;;19.13;;
19971;SDS011;10147;16.402;102.848;2023-04-24T08:03:28;20.58;;;18.63;;
19971;SDS011;10147;16.402;102.848;2023-04-24T08:05:59;19.60;;;17.63;;
19971;SDS011;10147;16.402;102.848;2023-04-24T08:08:29;19.48;;;17.55;;
19971;SDS011;10147;16.402;102.848;2023-04-24T08:10:59;19.38;;;17.58;;
19971;SDS011;10147;16.402;102.848;2023-04-24T08:13:29;20.58;;;18.50;;
19971;SDS011;10147;16.402;102.848;2023-04-24T08:15:59;18.95;;;17.15;;
19971;SDS011;10147;16.402;102.848;2023-04-24T08:18:29;21.42;;;18.90;;
19971;SDS011;10147;16.402;102.848;2023-04-24T08:21:00;20.73;;;18.67;;
19971;SDS011;10147;16.402;102.848;2023-04-24T08:23:30;20.95;;;19.02;;
19971;SDS011;10147;16.402;102.848;2023-04-24T08:26:00;20.08;;;18.08;;
19971;SDS011;10147;16.402;102.848;2023-04-24T08:28:30;19.58;;;17.77;;
19971;SDS011;10147;16.402;102.848;2023-04-24T08:31:00;19.70;;;17.90;;
19971;SDS011;10147;16.402;102.848;2023-04-24T08:33:30;20.15;;;18.05;;
19971;SDS011;10147;16.402;102.848;2023-04-24T08:36:03;21.95;;;18.02;;
19971;SDS011;10147;16.402;102.848;2023-04-24T08:38:34;20.30;;;18.55;;
19971;SDS011;10147;16.402;102.848;2023-04-24T08:41:04;20.65;;;18.75;;
19971;SDS011;10147;16.402;102.848;2023-04-24T08:43:35;20.75;;;18.65;;
19971;SDS011;10147;16.402;102.848;2023-04-24T08:46:07;20.10;;;18.20;;
19971;SDS011;10147;16.402;102.848;2023-04-24T08:48:39;21.27;;;19.38;;
19971;SDS011;10147;16.402;102.848;2023-04-24T08:51:09;20.25;;;18.23;;
19971;SDS011;10147;16.402;102.848;2023-04-24T08:53:39;21.77;;;19.58;;
19971;SDS011;10147;16.402;102.848;2023-04-24T08:56:09;21.65;;;19.63;;
19971;SDS011;10147;16.402;102.848;2023-04-24T08:58:40;21.58;;;19.55;;
19971;SDS011;10147;16.402;102.848;2023-04-24T09:01:10;21.50;;;19.27;;
19971;SDS011;10147;16.402;102.848;2023-04-24T09:03:41;21.73;;;19.25;;
19971;SDS011;10147;16.402;102.848;2023-04-24T09:06:11;21.27;;;19.25;;
19971;SDS011;10147;16.402;102.848;2023-04-24T09:08:42;20.92;;;18.85;;
19971;SDS011;10147;16.402;102.848;2023-04-24T09:11:14;20.30;;;18.35;;
19971;SDS011;10147;16.402;102.848;2023-04-24T09:13:44;20.13;;;18.13;;
19971;SDS011;10147;16.402;102.848;2023-04-24T09:16:15;20.15;;;18.08;;
19971;SDS011;10147;16.402;102.848;2023-04-24T09:18:45;20.67;;;18.77;;
19971;SDS011;10147;16.402;102.848;2023-04-24T09:21:15;20.35;;;18.45;;
19971;SDS011;10147;16.402;102.848;2023-04-24T09:23:45;21.05;;;18.70;;
19971;SDS011;10147;16.402;102.848;2023-04-24T09:26:16;21.27;;;18.48;;
19971;SDS011;10147;16.402;102.848;2023-04-24T09:28:53;21.00;;;19.00;;
19971;SDS011;10147;16.402;102.848;2023-04-24T09:31:23;20.77;;;18.88;;
19971;SDS011;10147;16.402;102.848;2023-04-24T09:33:59;21.33;;;19.23;;
19971;SDS011;10147;16.402;102.848;2023-04-24T09:36:35;20.23;;;18.27;;
19971;SDS011;10147;16.402;102.848;2023-04-24T09:39:10;21.75;;;19.48;;
19971;SDS011;10147;16.402;102.848;2023-04-24T09:41:46;21.30;;;19.35;;
19971;SDS011;10147;16.402;102.848;2023-04-24T09:44:22;20.33;;;18.40;;
19971;SDS011;10147;16.402;102.848;2023-04-24T09:46:54;20.67;;;18.63;;
19971;SDS011;10147;16.402;102.848;2023-04-24T09:49:29;21.67;;;19.40;;
19971;SDS011;10147;16.402;102.848;2023-04-24T09:52:08;20.65;;;18.63;;
19971;SDS011;10147;16.402;102.848;2023-04-24T09:54:39;23.27;;;20.92;;
19971;SDS011;10147;16.402;102.848;2023-04-24T09:57:09;24.60;;;22.17;;
19971;SDS011;10147;16.402;102.848;2023-04-24T09:59:42;23.20;;;20.95;;
19971;SDS011;10147;16.402;102.848;2023-04-24T10:02:18;22.27;;;20.08;;
19971;SDS011;10147;16.402;102.848;2023-04-24T10:04:56;23.15;;;21.02;;
19971;SDS011;10147;16.402;102.848;2023-04-24T10:07:28;23.40;;;21.02;;
19971;SDS011;10147;16.402;102.848;2023-04-24T10:09:58;25.95;;;23.42;;
19971;SDS011;10147;16.402;102.848;2023-04-24T10:12:28;25.38;;;22.13;;
19971;SDS011;10147;16.402;102.848;2023-04-24T10:15:07;24.77;;;22.38;;
19971;SDS011;10147;16.402;102.848;2023-04-24T10:17:41;24.40;;;22.05;;
19971;SDS011;10147;16.402;102.848;2023-04-24T10:20:13;24.20;;;21.67;;
19971;SDS011;10147;16.402;102.848;2023-04-24T10:22:42;23.95;;;21.42;;
19971;SDS011;10147;16.402;102.848;2023-04-24T10:25:14;23.05;;;20.73;;
19971;SDS011;10147;16.402;102.848;2023-04-24T10:27:55;24.38;;;21.85;;
19971;SDS011;10147;16.402;102.848;2023-04-24T10:30:30;23.25;;;20.98;;
19971;SDS011;10147;16.402;102.848;2023-04-24T10:33:05;25.10;;;22.70;;
19971;SDS011;10147;16.402;102.848;2023-04-24T10:35:38;24.00;;;21.15;;
19971;SDS011;10147;16.402;102.848;2023-04-24T10:38:13;23.75;;;21.23;;
19971;SDS011;10147;16.402;102.848;2023-04-24T10:40:45;24.30;;;22.02;;
19971;SDS011;10147;16.402;102.848;2023-04-24T10:43:16;23.52;;;21.13;;
19971;SDS011;10147;16.402;102.848;2023-04-24T10:48:42;24.25;;;21.75;;
19971;SDS011;10147;16.402;102.848;2023-04-24T10:51:13;24.67;;;22.30;;
19971;SDS011;10147;16.402;102.848;2023-04-24T10:53:43;24.00;;;21.63;;
19971;SDS011;10147;16.402;102.848;2023-04-24T10:56:15;25.58;;;22.92;;
19971;SDS011;10147;16.402;102.848;2023-04-24T10:58:50;23.52;;;21.42;;
19971;SDS011;10147;16.402;102.848;2023-04-24T11:01:25;25.10;;;21.55;;
19971;SDS011;10147;16.402;102.848;2023-04-24T11:03:59;24.85;;;22.10;;
19971;SDS011;10147;16.402;102.848;2023-04-24T11:06:32;26.88;;;24.17;;
19971;SDS011;10147;16.402;102.848;2023-04-24T11:09:06;25.52;;;23.05;;
19971;SDS011;10147;16.402;102.848;2023-04-24T11:11:38;25.42;;;22.80;;
19971;SDS011;10147;16.402;102.848;2023-04-24T11:14:14;28.73;;;25.67;;
19971;SDS011;10147;16.402;102.848;2023-04-24T11:16:45;28.88;;;25.58;;
19971;SDS011;10147;16.402;102.848;2023-04-24T11:19:23;28.35;;;25.40;;
19971;SDS011;10147;16.402;102.848;2023-04-24T11:21:55;25.50;;;22.80;;
19971;SDS011;10147;16.402;102.848;2023-04-24T11:27:38;29.65;;;25.10;;
19971;SDS011;10147;16.402;102.848;2023-04-24T11:30:10;27.35;;;23.00;;
19971;SDS011;10147;16.402;102.848;2023-04-24T11:32:41;27.38;;;24.40;;
19971;SDS011;10147;16.402;102.848;2023-04-24T11:35:15;28.20;;;24.98;;
19971;SDS011;10147;16.402;102.848;2023-04-24T11:37:54;27.90;;;24.90;;
19971;SDS011;10147;16.402;102.848;2023-04-24T11:40:27;33.65;;;26.33;;
19971;SDS011;10147;16.402;102.848;2023-04-24T11:42:59;29.58;;;26.45;;
19971;SDS011;10147;16.402;102.848;2023-04-24T11:45:30;30.75;;;27.42;;
19971;SDS011;10147;16.402;102.848;2023-04-24T11:48:00;33.03;;;27.20;;
19971;SDS011;10147;16.402;102.848;2023-04-24T11:50:32;28.98;;;25.63;;
19971;SDS011;10147;16.402;102.848;2023-04-24T11:53:02;32.58;;;28.42;;
19971;SDS011;10147;16.402;102.848;2023-04-24T11:55:34;30.38;;;27.33;;
19971;SDS011;10147;16.402;102.848;2023-04-24T11:58:05;30.23;;;27.30;;
19971;SDS011;10147;16.402;102.848;2023-04-24T12:00:35;33.05;;;27.70;;
19971;SDS011;10147;16.402;102.848;2023-04-24T12:03:10;41.55;;;34.15;;
19971;SDS011;10147;16.402;102.848;2023-04-24T12:05:41;93.43;;;66.57;;
19971;SDS011;10147;16.402;102.848;2023-04-24T12:08:14;70.00;;;53.25;;
19971;SDS011;10147;16.402;102.848;2023-04-24T12:10:57;50.22;;;40.15;;
19971;SDS011;10147;16.402;102.848;2023-04-24T12:13:29;46.72;;;38.15;;
19971;SDS011;10147;16.402;102.848;2023-04-24T12:16:01;44.83;;;35.58;;
19971;SDS011;10147;16.402;102.848;2023-04-24T12:18:33;43.80;;;37.13;;
19971;SDS011;10147;16.402;102.848;2023-04-24T12:23:55;51.40;;;44.30;;
19971;SDS011;10147;16.402;102.848;2023-04-24T12:26:25;54.38;;;47.97;;
19971;SDS011;10147;16.402;102.848;2023-04-24T12:28:56;56.75;;;43.92;;
19971;SDS011;10147;16.402;102.848;2023-04-24T12:31:32;45.97;;;40.95;;
19971;SDS011;10147;16.402;102.848;2023-04-24T12:34:02;47.55;;;39.67;;
19971;SDS011;10147;16.402;102.848;2023-04-24T12:36:32;53.75;;;40.60;;
19971;SDS011;10147;16.402;102.848;2023-04-24T12:39:13;63.33;;;44.13;;
19971;SDS011;10147;16.402;102.848;2023-04-24T12:41:54;80.53;;;55.40;;
19971;SDS011;10147;16.402;102.848;2023-04-24T12:44:32;112.68;;;73.47;;
19971;SDS011;10147;16.402;102.848;2023-04-24T12:47:05;101.82;;;66.97;;
19971;SDS011;10147;16.402;102.848;2023-04-24T12:49:37;93.10;;;56.58;;
19971;SDS011;10147;16.402;102.848;2023-04-24T12:52:07;62.85;;;43.95;;
19971;SDS011;10147;16.402;102.848;2023-04-24T12:54:37;51.17;;;36.13;;
19971;SDS011;10147;16.402;102.848;2023-04-24T12:57:07;38.75;;;32.75;;
19971;SDS011;10147;16.402;102.848;2023-04-24T12:59:37;53.92;;;39.60;;
19971;SDS011;10147;16.402;102.848;2023-04-24T13:02:07;72.10;;;46.97;;
19971;SDS011;10147;16.402;102.848;2023-04-24T13:04:38;65.20;;;49.65;;
19971;SDS011;10147;16.402;102.848;2023-04-24T13:07:08;74.30;;;52.42;;
19971;SDS011;10147;16.402;102.848;2023-04-24T13:09:40;70.13;;;49.40;;
19971;SDS011;10147;16.402;102.848;2023-04-24T13:12:11;42.35;;;35.65;;
19971;SDS011;10147;16.402;102.848;2023-04-24T13:14:42;41.22;;;34.10;;
19971;SDS011;10147;16.402;102.848;2023-04-24T13:17:12;43.63;;;36.00;;
19971;SDS011;10147;16.402;102.848;2023-04-24T13:19:43;47.63;;;37.53;;
19971;SDS011;10147;16.402;102.848;2023-04-24T13:22:14;46.97;;;36.63;;
19971;SDS011;10147;16.402;102.848;2023-04-24T13:24:46;44.10;;;34.30;;
19971;SDS011;10147;16.402;102.848;2023-04-24T13:27:19;33.47;;;29.88;;
19971;SDS011;10147;16.402;102.848;2023-04-24T13:29:49;35.08;;;27.77;;
19971;SDS011;10147;16.402;102.848;2023-04-24T13:32:19;34.70;;;27.45;;
19971;SDS011;10147;16.402;102.848;2023-04-24T13:34:50;35.65;;;29.75;;
19971;SDS011;10147;16.402;102.848;2023-04-24T13:37:20;33.47;;;27.58;;
19971;SDS011;10147;16.402;102.848;2023-04-24T13:39:51;30.60;;;27.23;;
19971;SDS011;10147;16.402;102.848;2023-04-24T13:42:21;30.35;;;26.08;;
19971;SDS011;10147;16.402;102.848;2023-04-24T13:44:51;28.95;;;25.60;;
19971;SDS011;10147;16.402;102.848;2023-04-24T13:47:22;30.38;;;26.63;;
19971;SDS011;10147;16.402;102.848;2023-04-24T13:49:52;29.10;;;26.05;;
19971;SDS011;10147;16.402;102.848;2023-04-24T13:52:22;27.95;;;24.95;;
19971;SDS011;10147;16.402;102.848;2023-04-24T13:54:52;32.83;;;27.60;;
19971;SDS011;10147;16.402;102.848;2023-04-24T13:57:22;31.65;;;25.55;;
19971;SDS011;10147;16.402;102.848;2023-04-24T13:59:53;28.23;;;25.33;;
19971;SDS011;10147;16.402;102.848;2023-04-24T14:02:24;30.77;;;25.00;;
19971;SDS011;10147;16.402;102.848;2023-04-24T14:04:54;31.73;;;26.58;;
19971;SDS011;10147;16.402;102.848;2023-04-24T14:07:24;33.17;;;25.45;;
19971;SDS011;10147;16.402;102.848;2023-04-24T14:09:54;28.77;;;24.25;;
19971;SDS011;10147;16.402;102.848;2023-04-24T14:12:25;29.17;;;25.38;;
19971;SDS011;10147;16.402;102.848;2023-04-24T14:14:57;33.50;;;25.90;;
19971;SDS011;10147;16.402;102.848;2023-04-24T14:17:30;30.73;;;25.63;;
19971;SDS011;10147;16.402;102.848;2023-04-24T14:20:00;29.65;;;24.73;;
19971;SDS011;10147;16.402;102.848;2023-04-24T14:22:32;28.55;;;24.52;;
19971;SDS011;10147;16.402;102.848;2023-04-24T14:25:03;30.33;;;24.75;;
19971;SDS011;10147;16.402;102.848;2023-04-24T14:27:35;31.20;;;25.25;;
19971;SDS011;10147;16.402;102.848;2023-04-24T14:30:05;30.80;;;26.08;;
19971;SDS011;10147;16.402;102.848;2023-04-24T14:32:37;30.35;;;25.83;;